Time;durP1;ratioP1;P1;durP2;ratioP2;P2;SDS_P1;SDS_P2;PMS_P1;PMS_P2;Temp;Humidity;BMP_temperature;BMP_pressure;BME280_temperature;BME280_humidity;BME280_pressure;Samples;Min_cycle;Max_cycle;Signal;HPM_P1;HPM_P2
2021/04/18 00:01:01;;;;;;;13.10;6.78;;;4.10;99.90;;;;;;5021458;28;20100;-69
2021/04/18 00:03:27;;;;;;;10.75;7.00;;;4.00;99.90;;;;;;5020854;28;20069;-69
2021/04/18 00:05:52;;;;;;;8.68;5.55;;;3.90;99.90;;;;;;5022046;28;20090;-69
2021/04/18 00:08:18;;;;;;;11.73;6.20;;;3.90;99.90;;;;;;5022702;28;20041;-69
2021/04/18 00:10:44;;;;;;;15.00;6.25;;;3.90;99.90;;;;;;5021014;28;20037;-69
2021/04/18 00:13:13;;;;;;;15.32;5.80;;;3.90;99.90;;;;;;5017024;28;20119;-70
2021/04/18 00:15:42;;;;;;;10.43;6.40;;;3.90;99.90;;;;;;5023207;28;20045;-69
2021/04/18 00:18:08;;;;;;;13.32;5.93;;;3.80;99.90;;;;;;5021810;28;20041;-69
2021/04/18 00:20:34;;;;;;;13.10;6.18;;;3.80;99.90;;;;;;5022171;28;20053;-69
2021/04/18 00:23:00;;;;;;;14.77;6.75;;;3.80;99.90;;;;;;5022964;28;20064;-70
2021/04/18 00:25:27;;;;;;;15.10;6.95;;;3.80;99.90;;;;;;5025187;28;20134;-70
2021/04/18 00:27:52;;;;;;;11.38;7.20;;;3.90;99.90;;;;;;5022820;28;20049;-69
2021/04/18 00:30:21;;;;;;;10.45;5.78;;;3.80;99.90;;;;;;5023272;28;20488;-70
2021/04/18 00:32:48;;;;;;;19.17;7.70;;;3.70;99.90;;;;;;5017732;28;20599;-70
2021/04/18 00:35:16;;;;;;;12.25;6.78;;;3.70;99.90;;;;;;5021555;28;20068;-69
2021/04/18 00:37:42;;;;;;;12.45;7.13;;;3.70;99.90;;;;;;5021426;28;20076;-69
2021/04/18 00:40:10;;;;;;;16.98;7.07;;;3.70;99.90;;;;;;5017939;28;20487;-69
2021/04/18 00:42:36;;;;;;;16.42;7.72;;;3.60;99.90;;;;;;5023397;28;20060;-70
2021/04/18 00:45:05;;;;;;;17.00;8.18;;;3.60;99.90;;;;;;5028232;28;20041;-69
2021/04/18 00:47:32;;;;;;;11.88;7.05;;;3.60;99.90;;;;;;5029770;28;20119;-69
2021/04/18 00:50:00;;;;;;;17.35;7.57;;;3.60;99.90;;;;;;5032510;28;20132;-70
2021/04/18 00:52:26;;;;;;;9.32;6.35;;;3.60;99.90;;;;;;5025140;28;20041;-69
2021/04/18 00:54:52;;;;;;;14.90;7.55;;;3.60;99.90;;;;;;5021381;28;20052;-70
2021/04/18 00:57:18;;;;;;;16.67;7.35;;;3.70;99.90;;;;;;5019628;28;20045;-70
2021/04/18 00:59:45;;;;;;;17.20;7.25;;;3.60;99.90;;;;;;5022330;28;20518;-69
2021/04/18 01:02:11;;;;;;;37.55;8.27;;;3.70;99.90;;;;;;5020760;28;20552;-69
2021/04/18 01:04:37;;;;;;;12.73;7.38;;;3.60;99.90;;;;;;5018969;28;20038;-70
2021/04/18 01:07:03;;;;;;;12.05;7.38;;;3.50;99.90;;;;;;5016244;28;20057;-69
2021/04/18 01:09:30;;;;;;;12.63;6.80;;;3.50;99.90;;;;;;5021343;28;20391;-70
2021/04/18 01:11:56;;;;;;;11.93;5.55;;;3.50;99.90;;;;;;5021893;28;20041;-69
2021/04/18 01:14:22;;;;;;;8.23;5.78;;;3.50;99.90;;;;;;5022980;28;20132;-69
2021/04/18 01:16:49;;;;;;;11.95;7.25;;;3.50;99.90;;;;;;5018180;28;20049;-69
2021/04/18 01:19:14;;;;;;;9.32;6.10;;;3.50;99.90;;;;;;5020748;28;20037;-69
2021/04/18 01:21:41;;;;;;;14.90;6.88;;;3.60;99.90;;;;;;5020195;28;20095;-70
2021/04/18 01:24:07;;;;;;;10.00;6.20;;;3.60;99.90;;;;;;5020993;28;20042;-69
2021/04/18 01:26:36;;;;;;;18.02;7.28;;;3.60;99.90;;;;;;5019059;28;20045;-69
2021/04/18 01:29:04;;;;;;;19.65;7.95;;;3.60;99.90;;;;;;5016092;28;20048;-69
2021/04/18 01:31:30;;;;;;;31.55;8.65;;;3.70;99.90;;;;;;5019568;28;20060;-69
2021/04/18 01:33:56;;;;;;;23.85;8.23;;;3.70;99.90;;;;;;5024835;28;20495;-69
2021/04/18 01:36:22;;;;;;;59.85;10.57;;;3.60;99.90;;;;;;5018667;28;20045;-69
2021/04/18 01:38:50;;;;;;;63.58;9.80;;;3.70;99.90;;;;;;5022371;28;20084;-69
2021/04/18 01:41:16;;;;;;;34.50;8.00;;;3.60;99.90;;;;;;5019691;28;20527;-70
2021/04/18 01:43:42;;;;;;;48.95;8.05;;;3.60;99.90;;;;;;5020508;28;20110;-69
2021/04/18 01:46:09;;;;;;;33.95;6.93;;;3.60;99.90;;;;;;5021629;28;20037;-70
2021/04/18 01:48:36;;;;;;;31.83;7.60;;;3.70;99.90;;;;;;5021311;28;20045;-70
2021/04/18 01:51:14;;;;;;;42.63;6.03;;;3.40;99.90;;;;;;5020101;28;20171;-69
2021/04/18 01:53:40;;;;;;;52.53;8.05;;;3.60;99.90;;;;;;5020349;28;21336;-69
2021/04/18 01:56:06;;;;;;;67.82;7.78;;;3.70;99.90;;;;;;5020747;28;20041;-70
2021/04/18 01:58:33;;;;;;;67.18;8.45;;;3.70;99.90;;;;;;5022386;28;20361;-71
2021/04/18 02:00:58;;;;;;;20.60;6.75;;;3.60;99.90;;;;;;5021204;28;20053;-70
2021/04/18 02:03:24;;;;;;;21.85;6.68;;;3.60;99.90;;;;;;5032500;28;20550;-70
2021/04/18 02:05:50;;;;;;;20.45;4.50;;;3.60;99.90;;;;;;5020391;28;20388;-70
2021/04/18 02:08:16;;;;;;;27.48;5.50;;;3.60;99.90;;;;;;5029454;28;20056;-70
2021/04/18 02:10:42;;;;;;;41.15;6.13;;;3.60;99.90;;;;;;5029027;28;20045;-69
2021/04/18 02:13:07;;;;;;;27.80;5.57;;;3.60;99.90;;;;;;5031652;28;20051;-69
2021/04/18 02:15:34;;;;;;;41.65;6.47;;;3.50;99.90;;;;;;5023482;28;20137;-70
2021/04/18 02:17:59;;;;;;;39.80;6.55;;;3.50;99.90;;;;;;5020007;28;20144;-69
2021/04/18 02:20:25;;;;;;;15.15;5.78;;;3.50;99.90;;;;;;5020675;28;20125;-70
2021/04/18 02:22:51;;;;;;;18.35;5.55;;;3.40;99.90;;;;;;5015229;28;20407;-69
2021/04/18 02:25:17;;;;;;;23.35;6.20;;;3.50;99.90;;;;;;5023159;28;21017;-69
2021/04/18 02:27:43;;;;;;;22.52;5.75;;;3.40;99.90;;;;;;5015944;28;20054;-69
2021/04/18 02:30:10;;;;;;;31.45;6.80;;;3.40;99.90;;;;;;5017256;28;21155;-69
2021/04/18 02:32:36;;;;;;;21.63;5.60;;;3.40;99.90;;;;;;5020198;28;20045;-71
2021/04/18 02:35:04;;;;;;;19.40;5.65;;;3.50;99.90;;;;;;5021364;28;20056;-69
2021/04/18 02:37:30;;;;;;;38.83;6.30;;;3.50;99.90;;;;;;5018351;28;20049;-70
2021/04/18 02:39:56;;;;;;;138.40;11.07;;;3.50;99.90;;;;;;5019551;28;20134;-69
2021/04/18 02:42:22;;;;;;;37.97;6.57;;;3.50;99.90;;;;;;5016480;28;20690;-70
2021/04/18 02:44:48;;;;;;;47.78;7.15;;;3.50;99.90;;;;;;5019452;28;20123;-70
2021/04/18 02:47:14;;;;;;;46.25;6.50;;;3.50;99.90;;;;;;5021779;28;20570;-70
2021/04/18 02:49:41;;;;;;;18.10;5.28;;;3.40;99.90;;;;;;5019421;28;20048;-70
2021/04/18 02:52:07;;;;;;;78.03;7.53;;;3.50;99.90;;;;;;5018357;28;20041;-70
2021/04/18 02:54:33;;;;;;;22.65;5.32;;;3.50;99.90;;;;;;5020934;28;20092;-70
2021/04/18 02:56:59;;;;;;;12.23;5.30;;;3.40;99.90;;;;;;5019714;28;20106;-70
2021/04/18 02:59:25;;;;;;;30.33;6.28;;;3.40;99.90;;;;;;5017313;28;20120;-70
2021/04/18 03:01:50;;;;;;;32.33;6.38;;;3.40;99.90;;;;;;5018947;28;20042;-70
2021/04/18 03:04:16;;;;;;;15.60;5.93;;;3.40;99.90;;;;;;5015867;28;20052;-70
2021/04/18 03:06:42;;;;;;;30.00;5.57;;;3.40;99.90;;;;;;5022066;28;20041;-69
2021/04/18 03:09:07;;;;;;;30.02;5.70;;;3.40;99.90;;;;;;5023324;28;20515;-70
2021/04/18 03:11:36;;;;;;;22.80;5.55;;;3.40;99.90;;;;;;5022495;28;20050;-70
2021/04/18 03:14:02;;;;;;;60.70;6.15;;;3.30;99.90;;;;;;5022698;28;20045;-70
2021/04/18 03:16:27;;;;;;;14.55;5.57;;;3.30;99.90;;;;;;5016540;28;20624;-70
2021/04/18 03:18:54;;;;;;;47.40;6.30;;;3.10;99.90;;;;;;5024733;28;20519;-69
2021/04/18 03:21:19;;;;;;;294.67;14.27;;;3.00;99.90;;;;;;5023833;28;20067;-70
2021/04/18 03:23:45;;;;;;;324.73;14.80;;;3.00;99.90;;;;;;5023641;28;20606;-70
2021/04/18 03:26:11;;;;;;;262.88;11.80;;;2.90;99.90;;;;;;5021706;28;20045;-70
2021/04/18 03:28:37;;;;;;;324.60;14.20;;;2.70;99.90;;;;;;5020871;28;20038;-69
2021/04/18 03:31:03;;;;;;;210.55;11.88;;;2.60;99.90;;;;;;5015726;28;20164;-70
2021/04/18 03:33:29;;;;;;;57.38;7.20;;;2.50;99.90;;;;;;5019416;28;20046;-70
2021/04/18 03:35:54;;;;;;;36.50;5.88;;;2.50;99.90;;;;;;5022717;28;20053;-70
2021/04/18 03:38:21;;;;;;;75.40;8.43;;;2.40;99.90;;;;;;5022606;28;20103;-70
2021/04/18 03:40:46;;;;;;;153.60;10.02;;;2.40;99.90;;;;;;5021584;28;20037;-70
2021/04/18 03:43:13;;;;;;;85.18;7.93;;;2.30;99.90;;;;;;5022090;28;20045;-70
2021/04/18 03:45:39;;;;;;;21.27;5.53;;;2.20;99.90;;;;;;5023086;28;20045;-70
2021/04/18 03:48:06;;;;;;;50.28;6.15;;;2.20;99.90;;;;;;5016615;28;20045;-70
2021/04/18 03:50:31;;;;;;;78.30;8.32;;;2.30;99.90;;;;;;5027246;28;20045;-70
2021/04/18 03:52:58;;;;;;;88.35;8.57;;;2.30;99.90;;;;;;5020327;28;20589;-70
2021/04/18 03:55:25;;;;;;;178.90;12.32;;;2.20;99.90;;;;;;5022331;28;20064;-70
2021/04/18 03:57:53;;;;;;;131.43;9.27;;;2.30;99.90;;;;;;5020459;28;20049;-70
2021/04/18 04:00:20;;;;;;;88.72;10.40;;;2.20;99.90;;;;;;5036224;28;20044;-69
2021/04/18 04:02:46;;;;;;;44.25;8.02;;;2.20;99.90;;;;;;5021001;28;20033;-70
2021/04/18 04:05:12;;;;;;;143.20;12.35;;;2.20;99.90;;;;;;5021610;28;20564;-70
2021/04/18 04:07:38;;;;;;;20.08;7.10;;;2.30;99.90;;;;;;5020074;28;21304;-70
2021/04/18 04:10:07;;;;;;;28.05;7.47;;;2.40;99.90;;;;;;5021289;28;20040;-70
2021/04/18 04:12:33;;;;;;;37.90;7.88;;;2.40;99.90;;;;;;5021219;28;20045;-70
2021/04/18 04:14:59;;;;;;;42.58;8.07;;;2.50;99.90;;;;;;5021660;28;20116;-70
2021/04/18 04:17:28;;;;;;;105.45;9.65;;;2.50;99.90;;;;;;5016690;28;20461;-70
2021/04/18 04:19:54;;;;;;;37.00;7.30;;;2.50;99.90;;;;;;5020475;28;20053;-70
2021/04/18 04:22:20;;;;;;;190.05;11.75;;;2.40;99.90;;;;;;5023273;28;20087;-70
2021/04/18 04:24:47;;;;;;;122.15;10.00;;;2.40;99.90;;;;;;5021746;28;20041;-70
2021/04/18 04:27:14;;;;;;;105.72;9.45;;;2.30;99.90;;;;;;5019557;28;20037;-70
2021/04/18 04:29:40;;;;;;;57.17;8.10;;;2.30;99.90;;;;;;5023504;28;20037;-70
2021/04/18 04:32:06;;;;;;;65.28;7.03;;;2.30;99.90;;;;;;5019233;28;20254;-70
2021/04/18 04:34:32;;;;;;;38.00;6.40;;;2.40;99.90;;;;;;5022354;28;20041;-70
2021/04/18 04:36:58;;;;;;;90.18;7.80;;;2.30;99.90;;;;;;5020236;28;20045;-70
2021/04/18 04:39:24;;;;;;;72.25;8.98;;;2.40;99.90;;;;;;5018674;28;20483;-70
2021/04/18 04:41:50;;;;;;;75.38;6.70;;;2.40;99.90;;;;;;5003634;28;20049;-70
2021/04/18 04:44:16;;;;;;;43.28;7.38;;;2.40;99.90;;;;;;5015116;28;20048;-70
2021/04/18 04:46:46;;;;;;;71.72;8.77;;;2.30;99.90;;;;;;5000580;28;20042;-70
2021/04/18 04:49:12;;;;;;;99.07;9.52;;;2.40;99.90;;;;;;5015378;28;20091;-70
2021/04/18 04:51:44;;;;;;;51.05;7.30;;;2.40;99.90;;;;;;5019949;28;20045;-71
2021/04/18 04:54:10;;;;;;;50.60;8.60;;;2.40;99.90;;;;;;5022270;28;20038;-70
2021/04/18 04:56:36;;;;;;;83.90;9.23;;;2.50;99.90;;;;;;5019241;28;20056;-70
2021/04/18 04:59:02;;;;;;;65.90;7.85;;;2.40;99.90;;;;;;5021013;28;20037;-70
2021/04/18 05:01:28;;;;;;;78.68;8.27;;;2.50;99.90;;;;;;5023792;28;20037;-71
2021/04/18 05:03:54;;;;;;;13.13;5.95;;;2.60;99.90;;;;;;5019038;28;21935;-70
2021/04/18 05:06:20;;;;;;;42.00;5.18;;;2.60;99.90;;;;;;5021123;28;20045;-70
2021/04/18 05:08:46;;;;;;;25.20;4.55;;;2.60;99.90;;;;;;5020697;28;20049;-70
2021/04/18 05:11:12;;;;;;;45.03;6.65;;;2.60;99.90;;;;;;5021577;28;20152;-70
2021/04/18 05:13:38;;;;;;;22.58;3.83;;;2.60;99.90;;;;;;5021007;28;20055;-70
2021/04/18 05:16:04;;;;;;;40.67;4.80;;;2.70;99.90;;;;;;5023560;28;20107;-70
2021/04/18 05:18:30;;;;;;;48.25;5.38;;;2.70;99.90;;;;;;5013763;28;20100;-70
2021/04/18 05:20:56;;;;;;;96.55;8.25;;;2.80;99.90;;;;;;5015049;28;20048;-71
2021/04/18 05:23:22;;;;;;;99.15;9.02;;;2.80;99.90;;;;;;5017145;28;20045;-70
2021/04/18 05:25:48;;;;;;;55.38;6.00;;;2.90;99.90;;;;;;5019662;28;20041;-71
2021/04/18 05:28:14;;;;;;;96.40;8.63;;;2.90;99.90;;;;;;5023314;28;20045;-70
2021/04/18 05:30:39;;;;;;;117.90;9.23;;;2.90;99.90;;;;;;5018261;28;20119;-71
2021/04/18 05:33:06;;;;;;;101.03;8.00;;;2.90;99.90;;;;;;5019906;28;20042;-71
2021/04/18 05:35:32;;;;;;;130.63;10.38;;;2.90;99.90;;;;;;5017186;28;20045;-71
2021/04/18 05:37:58;;;;;;;121.78;11.23;;;2.90;99.90;;;;;;5020049;28;20072;-71
2021/04/18 05:40:24;;;;;;;99.70;8.70;;;3.00;99.90;;;;;;5019615;28;20101;-71
2021/04/18 05:42:50;;;;;;;107.50;10.15;;;3.10;99.90;;;;;;5015558;28;20566;-71
2021/04/18 05:45:16;;;;;;;91.47;11.20;;;3.20;99.90;;;;;;5018484;28;20030;-71
2021/04/18 05:47:43;;;;;;;83.50;8.25;;;3.10;99.90;;;;;;5017048;28;21095;-71
2021/04/18 05:50:09;;;;;;;76.80;8.05;;;3.20;99.90;;;;;;5013070;28;20046;-71
2021/04/18 05:52:38;;;;;;;27.25;6.30;;;3.20;99.90;;;;;;5017967;28;20057;-71
2021/04/18 05:55:06;;;;;;;57.63;8.73;;;3.30;99.90;;;;;;5014485;28;20087;-71
2021/04/18 05:57:32;;;;;;;7.30;4.68;;;3.40;99.90;;;;;;5015629;28;20045;-71
2021/04/18 05:59:58;;;;;;;13.77;6.53;;;3.40;99.90;;;;;;5017469;28;20479;-71
2021/04/18 06:02:23;;;;;;;11.40;6.65;;;3.50;99.90;;;;;;5014341;28;20164;-71
2021/04/18 06:04:49;;;;;;;6.35;5.15;;;3.50;99.90;;;;;;5015434;28;20060;-70
2021/04/18 06:07:15;;;;;;;6.05;4.80;;;3.60;99.90;;;;;;5015469;28;20033;-71
2021/04/18 06:09:41;;;;;;;7.47;4.78;;;3.70;99.90;;;;;;5014960;28;20107;-71
2021/04/18 06:12:07;;;;;;;6.80;5.32;;;3.80;99.90;;;;;;5014347;28;20053;-71
2021/04/18 06:14:33;;;;;;;6.30;5.55;;;3.80;99.90;;;;;;5016176;28;20045;-71
2021/04/18 06:16:59;;;;;;;5.80;4.55;;;3.90;99.90;;;;;;5015814;28;20099;-71
2021/04/18 06:19:24;;;;;;;6.63;4.55;;;4.00;99.90;;;;;;5016318;28;20883;-71
2021/04/18 06:21:50;;;;;;;6.53;5.90;;;4.10;99.90;;;;;;5016167;28;20158;-71
2021/04/18 06:24:16;;;;;;;7.65;6.90;;;4.20;99.90;;;;;;5018075;28;20096;-71
2021/04/18 06:26:41;;;;;;;6.22;5.63;;;4.30;99.90;;;;;;5016725;28;20056;-71
2021/04/18 06:29:07;;;;;;;9.57;8.20;;;4.30;99.90;;;;;;5016813;28;20041;-71
2021/04/18 06:31:33;;;;;;;10.98;8.15;;;4.40;99.90;;;;;;5018328;28;20128;-71
2021/04/18 06:33:58;;;;;;;10.57;8.00;;;4.60;99.90;;;;;;5019001;28;20096;-71
2021/04/18 06:36:24;;;;;;;9.70;7.72;;;4.80;99.90;;;;;;5018244;28;21033;-71
2021/04/18 06:38:50;;;;;;;8.57;6.35;;;5.00;99.90;;;;;;5018678;28;20435;-71
2021/04/18 06:41:23;;;;;;;8.25;5.85;;;5.20;99.90;;;;;;5021302;28;20049;-71
2021/04/18 06:43:50;;;;;;;9.43;7.35;;;5.30;99.90;;;;;;5022690;28;20112;-71
2021/04/18 06:46:18;;;;;;;7.18;5.65;;;5.50;99.90;;;;;;5022440;28;20044;-71
2021/04/18 06:48:49;;;;;;;10.32;6.72;;;5.70;99.90;;;;;;5019662;28;20059;-71
2021/04/18 06:51:20;;;;;;;9.15;6.47;;;5.80;99.90;;;;;;5020183;28;20052;-71
2021/04/18 06:53:47;;;;;;;10.65;7.32;;;6.00;99.90;;;;;;5036738;28;20403;-71
2021/04/18 06:56:13;;;;;;;10.52;7.57;;;6.10;99.90;;;;;;5020846;28;20772;-71
2021/04/18 06:58:39;;;;;;;9.55;7.47;;;6.30;99.90;;;;;;5017747;28;20029;-71
2021/04/18 07:01:05;;;;;;;11.93;6.85;;;6.40;99.90;;;;;;5019446;28;20123;-71
2021/04/18 07:03:31;;;;;;;11.73;7.13;;;6.50;99.90;;;;;;5018602;28;20037;-71
2021/04/18 07:05:58;;;;;;;8.93;6.63;;;6.60;99.90;;;;;;5018819;28;20057;-71
2021/04/18 07:08:29;;;;;;;8.00;6.05;;;6.70;99.90;;;;;;5016175;28;20046;-71
2021/04/18 07:11:14;;;;;;;8.13;7.00;;;6.80;99.90;;;;;;5012486;28;20048;-71
2021/04/18 07:13:41;;;;;;;7.60;6.00;;;6.90;99.90;;;;;;5005604;28;20042;-71
2021/04/18 07:16:33;;;;;;;7.90;6.53;;;7.10;99.90;;;;;;5007112;28;20049;-71
2021/04/18 07:18:59;;;;;;;9.63;5.80;;;7.30;99.90;;;;;;5005313;28;20037;-71
2021/04/18 07:21:45;;;;;;;10.63;7.22;;;7.50;99.90;;;;;;5005379;28;20049;-72
2021/04/18 07:24:11;;;;;;;9.82;6.25;;;7.70;99.90;;;;;;5009591;28;20098;-71
2021/04/18 07:26:38;;;;;;;8.45;6.88;;;7.90;99.90;;;;;;5006792;28;20045;-71
2021/04/18 07:29:30;;;;;;;9.20;7.70;;;8.10;99.90;;;;;;5007476;28;20052;-71
2021/04/18 07:32:00;;;;;;;11.73;7.10;;;8.30;99.90;;;;;;5005441;28;20084;-71
2021/04/18 07:34:36;;;;;;;11.73;7.03;;;8.50;99.90;;;;;;5009304;28;20113;-71
2021/04/18 07:37:14;;;;;;;11.63;6.13;;;8.80;99.90;;;;;;5003544;28;20242;-72
2021/04/18 07:39:56;;;;;;;9.50;5.60;;;9.40;99.90;;;;;;5007255;28;21695;-71
2021/04/18 07:42:39;;;;;;;9.52;6.22;;;9.90;99.90;;;;;;5003580;28;20044;-72
2021/04/18 07:45:12;;;;;;;8.32;6.20;;;10.30;99.60;;;;;;5007431;28;20041;-72
2021/04/18 07:47:39;;;;;;;9.43;6.72;;;10.40;98.50;;;;;;5004953;28;20069;-72
2021/04/18 07:50:09;;;;;;;7.78;5.82;;;10.50;98.40;;;;;;5004364;28;21759;-72
2021/04/18 07:52:42;;;;;;;9.13;5.07;;;10.60;97.80;;;;;;5015521;28;20123;-72
2021/04/18 07:55:09;;;;;;;11.18;5.25;;;10.90;97.10;;;;;;5015806;28;20345;-71
2021/04/18 07:57:35;;;;;;;8.90;4.70;;;11.30;97.50;;;;;;5011491;28;20041;-72
2021/04/18 08:00:02;;;;;;;7.28;5.45;;;11.50;93.40;;;;;;5017478;28;20470;-72
2021/04/18 08:02:28;;;;;;;8.23;4.70;;;11.70;93.70;;;;;;5014405;28;20038;-72
2021/04/18 08:04:56;;;;;;;7.40;4.70;;;11.60;91.50;;;;;;5014211;28;20033;-72
2021/04/18 08:07:23;;;;;;;8.90;5.18;;;11.90;92.90;;;;;;5016154;28;20045;-72
2021/04/18 08:10:28;;;;;;;6.03;4.78;;;12.10;92.20;;;;;;5017532;28;20045;-72
2021/04/18 08:13:15;;;;;;;8.85;4.85;;;12.30;90.50;;;;;;5014837;28;20045;-72
2021/04/18 08:15:58;;;;;;;8.38;4.43;;;12.50;90.70;;;;;;5015657;28;20049;-72
2021/04/18 08:18:37;;;;;;;9.35;4.45;;;12.80;90.20;;;;;;5014391;28;20087;-72
2021/04/18 08:21:33;;;;;;;10.35;5.53;;;13.30;90.90;;;;;;5009726;28;20046;-72
2021/04/18 08:24:00;;;;;;;11.00;5.18;;;13.40;85.50;;;;;;5002051;28;20057;-72
2021/04/18 08:26:28;;;;;;;6.88;4.63;;;13.40;84.30;;;;;;5000952;28;20128;-72
2021/04/18 08:28:54;;;;;;;6.50;4.38;;;13.50;85.40;;;;;;5004233;28;20120;-72
2021/04/18 08:31:21;;;;;;;9.88;4.65;;;13.50;86.40;;;;;;5004099;28;20476;-72
2021/04/18 08:33:49;;;;;;;7.82;5.18;;;13.70;82.10;;;;;;5006689;28;20068;-72
2021/04/18 08:36:18;;;;;;;8.63;4.68;;;13.80;85.70;;;;;;5014936;28;20495;-72
2021/04/18 08:38:50;;;;;;;6.50;4.57;;;14.10;83.10;;;;;;5014184;28;20045;-72
2021/04/18 08:41:16;;;;;;;9.75;4.82;;;14.40;86.00;;;;;;5016687;28;20151;-72
2021/04/18 08:43:44;;;;;;;6.80;4.78;;;14.70;84.60;;;;;;5015091;28;20037;-72
2021/04/18 08:46:10;;;;;;;10.75;5.47;;;15.00;83.40;;;;;;5014584;28;20045;-72
2021/04/18 08:48:36;;;;;;;10.48;4.53;;;15.40;81.90;;;;;;5016397;28;20083;-72
2021/04/18 08:51:06;;;;;;;6.03;3.72;;;15.70;79.00;;;;;;5018040;28;21310;-72
2021/04/18 08:53:58;;;;;;;6.72;4.28;;;15.90;77.00;;;;;;5017412;28;20037;-72
2021/04/18 08:57:13;;;;;;;7.15;4.15;;;16.00;71.30;;;;;;5016403;28;20041;-72
2021/04/18 08:59:40;;;;;;;7.82;4.82;;;15.80;66.40;;;;;;4973855;28;20086;-72
2021/04/18 09:02:10;;;;;;;10.30;3.97;;;15.60;71.00;;;;;;4974447;28;20053;-72
2021/04/18 09:04:41;;;;;;;7.63;4.15;;;15.40;66.00;;;;;;4999315;28;20045;-72
2021/04/18 09:07:09;;;;;;;7.35;5.05;;;15.20;67.80;;;;;;5018652;28;20435;-72
2021/04/18 09:09:35;;;;;;;8.45;4.28;;;14.90;71.30;;;;;;5018254;28;20610;-72
2021/04/18 09:12:02;;;;;;;10.82;5.05;;;14.70;73.20;;;;;;5017842;28;20535;-72
2021/04/18 09:14:43;;;;;;;8.55;4.93;;;14.60;75.30;;;;;;5018391;28;20037;-72
2021/04/18 09:17:12;;;;;;;10.15;5.25;;;14.60;77.60;;;;;;5018513;28;20633;-72
2021/04/18 09:19:39;;;;;;;7.80;4.68;;;14.60;78.70;;;;;;5017988;28;20128;-72
2021/04/18 09:22:10;;;;;;;8.80;4.15;;;14.40;74.70;;;;;;5019467;28;20052;-72
2021/04/18 09:24:42;;;;;;;6.45;3.80;;;14.50;75.20;;;;;;5015714;28;20140;-72
2021/04/18 09:27:30;;;;;;;7.45;4.40;;;14.60;73.50;;;;;;5017272;28;20088;-72
2021/04/18 09:30:05;;;;;;;10.15;4.53;;;14.70;70.90;;;;;;5022174;28;20124;-72
2021/04/18 09:32:33;;;;;;;10.23;4.75;;;14.80;74.30;;;;;;5011143;28;21413;-73
2021/04/18 09:34:59;;;;;;;10.27;5.38;;;14.70;71.70;;;;;;5006615;28;20041;-72
2021/04/18 09:37:31;;;;;;;10.90;4.60;;;14.60;74.80;;;;;;5003390;28;20040;-72
2021/04/18 09:40:03;;;;;;;9.60;4.93;;;14.60;73.50;;;;;;5005830;28;20037;-72
2021/04/18 09:42:32;;;;;;;8.90;4.40;;;14.70;76.00;;;;;;5007705;28;20140;-72
2021/04/18 09:45:17;;;;;;;10.77;4.47;;;14.80;78.20;;;;;;5003892;28;20041;-72
2021/04/18 09:47:48;;;;;;;10.55;4.95;;;15.00;72.80;;;;;;5007475;28;20060;-72
2021/04/18 09:50:35;;;;;;;6.50;4.32;;;15.10;74.50;;;;;;5000539;28;20038;-73
2021/04/18 09:53:22;;;;;;;10.38;4.80;;;15.20;75.50;;;;;;5002876;28;20081;-72
2021/04/18 09:55:53;;;;;;;7.85;4.35;;;15.20;73.00;;;;;;5003209;28;21178;-72
2021/04/18 09:58:34;;;;;;;7.70;4.20;;;15.20;75.50;;;;;;5005197;28;20526;-73
2021/04/18 10:01:01;;;;;;;11.05;5.15;;;15.40;74.60;;;;;;5006901;28;20121;-73
2021/04/18 10:03:41;;;;;;;8.05;4.72;;;15.50;76.90;;;;;;5002311;28;20037;-73
2021/04/18 10:06:08;;;;;;;7.43;4.63;;;15.80;75.70;;;;;;5002393;28;20046;-73
2021/04/18 10:08:36;;;;;;;9.15;4.35;;;16.10;74.20;;;;;;5004044;28;20069;-72
2021/04/18 10:11:08;;;;;;;7.30;4.13;;;15.50;66.70;;;;;;4999747;28;20801;-72
2021/04/18 10:13:59;;;;;;;8.05;4.25;;;15.70;71.20;;;;;;5001987;28;20083;-72
2021/04/18 10:16:32;;;;;;;5.70;3.95;;;15.80;72.10;;;;;;5007419;28;20092;-74
2021/04/18 10:19:14;;;;;;;7.15;4.03;;;15.80;69.70;;;;;;5007811;28;20053;-75
2021/04/18 10:21:42;;;;;;;6.80;4.15;;;15.70;65.20;;;;;;5009844;28;20068;-74
2021/04/18 10:24:31;;;;;;;12.88;4.43;;;15.60;67.10;;;;;;5004150;28;20038;-74
2021/04/18 10:26:57;;;;;;;5.50;4.60;;;15.50;72.00;;;;;;5007520;28;20044;-74
2021/04/18 10:29:23;;;;;;;8.13;5.10;;;15.60;70.10;;;;;;5008177;28;20045;-74
2021/04/18 10:31:49;;;;;;;6.68;4.43;;;15.70;72.40;;;;;;5006769;28;20051;-74
2021/04/18 10:34:14;;;;;;;8.38;4.32;;;15.80;72.00;;;;;;5007255;28;20037;-74
2021/04/18 10:36:40;;;;;;;8.15;3.55;;;16.00;70.70;;;;;;5006354;28;20047;-75
2021/04/18 10:39:06;;;;;;;6.82;3.47;;;15.80;67.20;;;;;;5007173;28;20044;-74
2021/04/18 10:41:32;;;;;;;8.20;4.55;;;15.80;67.60;;;;;;5005216;28;20164;-74
2021/04/18 10:43:57;;;;;;;6.72;4.30;;;16.00;66.20;;;;;;5005824;28;20037;-74
2021/04/18 10:46:23;;;;;;;7.07;4.00;;;16.10;66.30;;;;;;5012785;28;20048;-74
2021/04/18 10:48:48;;;;;;;7.97;4.53;;;16.20;68.10;;;;;;5011163;28;20049;-74
2021/04/18 10:51:14;;;;;;;6.18;4.05;;;16.40;69.30;;;;;;5005754;28;20715;-74
2021/04/18 10:53:40;;;;;;;6.32;4.15;;;16.50;65.00;;;;;;5007501;28;20044;-71
2021/04/18 10:56:06;;;;;;;9.52;3.70;;;16.70;65.40;;;;;;5005808;28;20490;-72
2021/04/18 10:58:32;;;;;;;7.25;3.58;;;17.10;69.10;;;;;;5005746;28;20048;-72
2021/04/18 11:00:58;;;;;;;5.18;3.30;;;17.30;67.80;;;;;;5006562;28;20493;-72
2021/04/18 11:03:24;;;;;;;7.00;3.60;;;17.50;60.60;;;;;;5008652;28;21068;-72
2021/04/18 11:05:52;;;;;;;5.82;3.42;;;17.10;60.70;;;;;;5005262;28;20056;-72
2021/04/18 11:08:18;;;;;;;5.15;3.67;;;17.00;59.50;;;;;;5007038;28;21477;-72
2021/04/18 11:10:44;;;;;;;5.60;3.30;;;17.20;61.80;;;;;;5005250;28;20038;-72
2021/04/18 11:13:10;;;;;;;5.90;3.35;;;17.20;59.40;;;;;;5006678;28;20399;-72
2021/04/18 11:15:36;;;;;;;5.78;3.33;;;17.50;65.40;;;;;;5006400;28;20045;-72
2021/04/18 11:18:01;;;;;;;5.32;2.83;;;17.40;57.60;;;;;;5003858;28;20103;-72
2021/04/18 11:20:27;;;;;;;6.57;3.22;;;17.50;56.90;;;;;;5006656;28;20037;-73
2021/04/18 11:22:53;;;;;;;5.85;3.15;;;16.90;56.30;;;;;;5010331;28;20076;-72
2021/04/18 11:25:19;;;;;;;5.10;3.50;;;16.80;60.30;;;;;;5010033;28;20033;-72
2021/04/18 11:27:46;;;;;;;5.63;3.05;;;16.70;61.10;;;;;;5006492;28;20045;-72
2021/04/18 11:30:14;;;;;;;5.88;3.28;;;16.80;59.60;;;;;;5004814;28;20056;-72
2021/04/18 11:32:39;;;;;;;5.28;3.50;;;16.70;59.90;;;;;;5008491;28;20046;-72
2021/04/18 11:35:07;;;;;;;5.25;3.33;;;16.60;60.00;;;;;;5002911;28;20464;-71
2021/04/18 11:37:33;;;;;;;7.15;3.58;;;16.90;60.80;;;;;;5004477;28;21008;-72
2021/04/18 11:40:00;;;;;;;5.70;2.67;;;16.70;54.50;;;;;;5004727;28;20041;-72
2021/04/18 11:42:26;;;;;;;4.28;1.40;;;16.90;61.00;;;;;;5005030;28;20045;-72
2021/04/18 11:44:51;;;;;;;4.10;1.98;;;17.10;56.10;;;;;;5005363;28;20973;-72
2021/04/18 11:47:18;;;;;;;3.13;1.85;;;17.20;54.40;;;;;;5004833;28;20949;-72
2021/04/18 11:49:45;;;;;;;3.42;1.70;;;16.90;51.00;;;;;;5019355;28;20041;-72
2021/04/18 11:52:11;;;;;;;5.15;1.98;;;17.00;56.60;;;;;;5006202;28;20060;-72
2021/04/18 11:54:37;;;;;;;4.00;2.13;;;16.70;50.70;;;;;;5007172;28;20049;-72
2021/04/18 11:57:03;;;;;;;6.60;2.28;;;16.40;55.80;;;;;;5009692;28;20140;-72
2021/04/18 11:59:29;;;;;;;6.78;2.05;;;16.30;52.20;;;;;;5013645;28;20503;-72
2021/04/18 12:01:54;;;;;;;4.05;1.70;;;16.60;54.10;;;;;;5007279;28;20042;-71
2021/04/18 12:04:20;;;;;;;4.38;2.22;;;16.60;55.30;;;;;;5004937;28;20048;-71
2021/04/18 12:06:46;;;;;;;5.47;2.47;;;16.70;56.40;;;;;;5004670;28;20152;-71
2021/04/18 12:09:11;;;;;;;5.60;2.45;;;16.50;53.30;;;;;;5002245;28;20041;-71
2021/04/18 12:11:37;;;;;;;4.18;2.03;;;16.40;56.40;;;;;;5002219;28;20175;-71
2021/04/18 12:14:03;;;;;;;4.72;2.35;;;16.40;55.30;;;;;;5006499;28;20037;-71
2021/04/18 12:16:29;;;;;;;5.35;1.83;;;16.20;54.30;;;;;;5004607;28;20553;-71
2021/04/18 12:18:54;;;;;;;4.18;2.42;;;16.20;55.30;;;;;;5007844;28;20063;-71
2021/04/18 12:21:20;;;;;;;8.05;2.03;;;16.40;56.80;;;;;;5006949;28;20042;-71
2021/04/18 12:23:46;;;;;;;4.03;2.08;;;16.60;57.00;;;;;;5003027;28;20038;-72
2021/04/18 12:26:11;;;;;;;5.07;1.60;;;16.60;55.80;;;;;;5005737;28;20038;-72
2021/04/18 12:28:37;;;;;;;4.75;2.50;;;16.70;55.80;;;;;;5004427;28;20080;-73
2021/04/18 12:31:03;;;;;;;4.93;2.20;;;16.30;53.30;;;;;;5004338;28;20037;-72
2021/04/18 12:33:29;;;;;;;8.18;2.90;;;16.20;54.40;;;;;;5007600;28;20041;-72
2021/04/18 12:35:55;;;;;;;3.75;2.67;;;16.00;59.30;;;;;;5004619;28;20048;-73
2021/04/18 12:38:21;;;;;;;3.50;2.63;;;15.90;59.10;;;;;;5007374;28;20178;-72
2021/04/18 12:40:46;;;;;;;5.88;2.65;;;15.90;61.80;;;;;;5004667;28;21062;-69
2021/04/18 12:43:12;;;;;;;9.23;3.58;;;15.90;60.50;;;;;;5002186;28;20037;-68
2021/04/18 12:45:38;;;;;;;4.63;3.22;;;16.10;63.00;;;;;;5003380;28;20046;-71
2021/04/18 12:48:04;;;;;;;9.25;3.42;;;16.30;63.00;;;;;;5004136;28;20099;-71
2021/04/18 12:50:30;;;;;;;5.78;3.55;;;16.20;60.60;;;;;;5004141;28;20037;-71